sensor_id;sensor_type;location;lat;lon;timestamp;temperature;humidity
34572;DHT22;20808;48.974;8.452;2022-10-23T00:01:13;11.70;99.90
34572;DHT22;20808;48.974;8.452;2022-10-23T00:03:41;11.70;99.90
34572;DHT22;20808;48.974;8.452;2022-10-23T00:06:08;11.70;99.90
34572;DHT22;20808;48.974;8.452;2022-10-23T00:08:35;11.60;99.90
34572;DHT22;20808;48.974;8.452;2022-10-23T00:11:06;11.70;99.90
34572;DHT22;20808;48.974;8.452;2022-10-23T00:13:33;11.60;99.90
34572;DHT22;20808;48.974;8.452;2022-10-23T00:16:00;11.50;99.90
34572;DHT22;20808;48.974;8.452;2022-10-23T00:18:28;11.40;99.90
34572;DHT22;20808;48.974;8.452;2022-10-23T00:20:55;11.30;99.90
34572;DHT22;20808;48.974;8.452;2022-10-23T00:23:22;11.30;99.90
34572;DHT22;20808;48.974;8.452;2022-10-23T00:25:49;11.40;99.90
34572;DHT22;20808;48.974;8.452;2022-10-23T00:28:16;11.40;99.90
34572;DHT22;20808;48.974;8.452;2022-10-23T00:30:43;11.40;99.90
34572;DHT22;20808;48.974;8.452;2022-10-23T00:33:10;11.40;99.90
34572;DHT22;20808;48.974;8.452;2022-10-23T00:35:39;11.30;99.90
34572;DHT22;20808;48.974;8.452;2022-10-23T00:38:07;11.40;99.90
34572;DHT22;20808;48.974;8.452;2022-10-23T00:40:34;11.40;99.90
34572;DHT22;20808;48.974;8.452;2022-10-23T00:43:01;11.40;99.90
34572;DHT22;20808;48.974;8.452;2022-10-23T00:45:29;11.40;99.90
34572;DHT22;20808;48.974;8.452;2022-10-23T00:47:58;11.40;99.90
34572;DHT22;20808;48.974;8.452;2022-10-23T00:50:27;11.20;99.90
34572;DHT22;20808;48.974;8.452;2022-10-23T00:52:56;11.00;99.90
34572;DHT22;20808;48.974;8.452;2022-10-23T00:55:25;10.90;99.90
34572;DHT22;20808;48.974;8.452;2022-10-23T00:57:53;10.90;99.90
34572;DHT22;20808;48.974;8.452;2022-10-23T01:00:23;11.00;99.90
34572;DHT22;20808;48.974;8.452;2022-10-23T01:02:50;11.00;99.90
34572;DHT22;20808;48.974;8.452;2022-10-23T01:05:18;10.90;99.90
34572;DHT22;20808;48.974;8.452;2022-10-23T01:07:51;10.90;99.90
34572;DHT22;20808;48.974;8.452;2022-10-23T01:10:27;10.80;99.90
34572;DHT22;20808;48.974;8.452;2022-10-23T01:13:04;10.70;99.90
34572;DHT22;20808;48.974;8.452;2022-10-23T01:15:35;10.80;99.90
34572;DHT22;20808;48.974;8.452;2022-10-23T01:18:09;10.90;99.90
34572;DHT22;20808;48.974;8.452;2022-10-23T01:20:41;10.90;99.90
34572;DHT22;20808;48.974;8.452;2022-10-23T01:23:30;10.90;99.90
34572;DHT22;20808;48.974;8.452;2022-10-23T01:26:17;11.00;99.90
34572;DHT22;20808;48.974;8.452;2022-10-23T01:28:49;11.10;99.90
34572;DHT22;20808;48.974;8.452;2022-10-23T01:31:21;11.10;99.90
34572;DHT22;20808;48.974;8.452;2022-10-23T01:33:54;11.10;99.90
34572;DHT22;20808;48.974;8.452;2022-10-23T01:36:26;11.10;99.90
34572;DHT22;20808;48.974;8.452;2022-10-23T01:38:57;11.10;99.90
34572;DHT22;20808;48.974;8.452;2022-10-23T01:41:29;11.10;99.90
34572;DHT22;20808;48.974;8.452;2022-10-23T01:44:02;11.10;99.90
34572;DHT22;20808;48.974;8.452;2022-10-23T01:46:30;11.10;99.90
34572;DHT22;20808;48.974;8.452;2022-10-23T01:49:01;11.20;99.90
34572;DHT22;20808;48.974;8.452;2022-10-23T01:51:31;11.20;99.90
34572;DHT22;20808;48.974;8.452;2022-10-23T01:53:59;11.20;99.90
34572;DHT22;20808;48.974;8.452;2022-10-23T01:56:29;11.10;99.90
34572;DHT22;20808;48.974;8.452;2022-10-23T01:59:02;11.10;99.90
34572;DHT22;20808;48.974;8.452;2022-10-23T02:01:32;11.10;99.90
34572;DHT22;20808;48.974;8.452;2022-10-23T02:04:02;11.10;99.90
34572;DHT22;20808;48.974;8.452;2022-10-23T02:06:31;11.10;99.90
34572;DHT22;20808;48.974;8.452;2022-10-23T02:08:58;11.10;99.90
34572;DHT22;20808;48.974;8.452;2022-10-23T02:11:24;11.20;99.90
34572;DHT22;20808;48.974;8.452;2022-10-23T02:13:55;11.20;99.90
34572;DHT22;20808;48.974;8.452;2022-10-23T02:16:29;11.20;99.90
34572;DHT22;20808;48.974;8.452;2022-10-23T02:19:08;11.10;99.90
34572;DHT22;20808;48.974;8.452;2022-10-23T02:21:40;11.10;99.90
34572;DHT22;20808;48.974;8.452;2022-10-23T02:24:11;11.20;99.90
34572;DHT22;20808;48.974;8.452;2022-10-23T02:26:42;11.10;99.90
34572;DHT22;20808;48.974;8.452;2022-10-23T02:29:14;11.10;99.90
34572;DHT22;20808;48.974;8.452;2022-10-23T02:31:44;11.10;99.90
34572;DHT22;20808;48.974;8.452;2022-10-23T02:34:11;11.10;99.90
34572;DHT22;20808;48.974;8.452;2022-10-23T02:36:38;11.10;99.90
34572;DHT22;20808;48.974;8.452;2022-10-23T02:39:05;11.10;99.90
34572;DHT22;20808;48.974;8.452;2022-10-23T02:41:38;11.20;99.90
34572;DHT22;20808;48.974;8.452;2022-10-23T02:47:06;11.00;99.90
34572;DHT22;20808;48.974;8.452;2022-10-23T02:49:40;10.90;99.90
34572;DHT22;20808;48.974;8.452;2022-10-23T02:52:12;11.00;99.90
34572;DHT22;20808;48.974;8.452;2022-10-23T02:54:50;11.00;99.90
34572;DHT22;20808;48.974;8.452;2022-10-23T02:57:23;11.10;99.90
34572;DHT22;20808;48.974;8.452;2022-10-23T03:00:00;11.10;99.90
34572;DHT22;20808;48.974;8.452;2022-10-23T03:02:35;11.10;99.90
34572;DHT22;20808;48.974;8.452;2022-10-23T03:05:05;10.90;99.90
34572;DHT22;20808;48.974;8.452;2022-10-23T03:07:33;10.90;99.90
34572;DHT22;20808;48.974;8.452;2022-10-23T03:10:00;11.00;99.90
34572;DHT22;20808;48.974;8.452;2022-10-23T03:12:27;11.10;99.90
34572;DHT22;20808;48.974;8.452;2022-10-23T03:14:54;11.20;99.90
34572;DHT22;20808;48.974;8.452;2022-10-23T03:17:21;11.30;99.90
34572;DHT22;20808;48.974;8.452;2022-10-23T03:19:49;11.30;99.90
34572;DHT22;20808;48.974;8.452;2022-10-23T03:22:15;11.40;99.90
34572;DHT22;20808;48.974;8.452;2022-10-23T03:24:42;11.40;99.90
34572;DHT22;20808;48.974;8.452;2022-10-23T03:27:09;11.50;99.90
34572;DHT22;20808;48.974;8.452;2022-10-23T03:29:36;11.60;99.90
34572;DHT22;20808;48.974;8.452;2022-10-23T03:32:03;11.70;99.90
34572;DHT22;20808;48.974;8.452;2022-10-23T03:34:30;11.70;99.90
34572;DHT22;20808;48.974;8.452;2022-10-23T03:36:59;11.70;99.90
34572;DHT22;20808;48.974;8.452;2022-10-23T03:39:25;11.70;99.90
34572;DHT22;20808;48.974;8.452;2022-10-23T03:41:52;11.60;99.90
34572;DHT22;20808;48.974;8.452;2022-10-23T03:44:19;11.50;99.90
34572;DHT22;20808;48.974;8.452;2022-10-23T03:46:46;11.40;99.90
34572;DHT22;20808;48.974;8.452;2022-10-23T03:49:13;11.20;99.90
34572;DHT22;20808;48.974;8.452;2022-10-23T03:51:39;11.00;99.90
34572;DHT22;20808;48.974;8.452;2022-10-23T03:54:07;10.90;99.90
34572;DHT22;20808;48.974;8.452;2022-10-23T03:56:34;10.80;99.90
34572;DHT22;20808;48.974;8.452;2022-10-23T03:59:01;10.80;99.90
34572;DHT22;20808;48.974;8.452;2022-10-23T04:01:28;10.80;99.90
34572;DHT22;20808;48.974;8.452;2022-10-23T04:03:54;10.80;99.90
34572;DHT22;20808;48.974;8.452;2022-10-23T04:06:21;10.80;99.90
34572;DHT22;20808;48.974;8.452;2022-10-23T04:08:48;10.80;99.90
34572;DHT22;20808;48.974;8.452;2022-10-23T04:11:16;10.90;99.90
34572;DHT22;20808;48.974;8.452;2022-10-23T04:13:43;10.90;99.90
34572;DHT22;20808;48.974;8.452;2022-10-23T04:16:09;11.00;99.90
34572;DHT22;20808;48.974;8.452;2022-10-23T04:18:38;11.00;99.90
34572;DHT22;20808;48.974;8.452;2022-10-23T04:21:05;11.00;99.90
34572;DHT22;20808;48.974;8.452;2022-10-23T04:23:32;11.10;99.90
34572;DHT22;20808;48.974;8.452;2022-10-23T04:25:59;11.30;99.90
34572;DHT22;20808;48.974;8.452;2022-10-23T04:28:27;11.50;99.90
34572;DHT22;20808;48.974;8.452;2022-10-23T04:30:54;11.60;99.90
34572;DHT22;20808;48.974;8.452;2022-10-23T04:33:21;11.70;99.90
34572;DHT22;20808;48.974;8.452;2022-10-23T04:35:48;11.70;99.90
34572;DHT22;20808;48.974;8.452;2022-10-23T04:38:14;11.60;99.90
34572;DHT22;20808;48.974;8.452;2022-10-23T04:40:41;11.60;99.90
34572;DHT22;20808;48.974;8.452;2022-10-23T04:43:08;11.60;99.90
34572;DHT22;20808;48.974;8.452;2022-10-23T04:45:36;11.70;99.90
34572;DHT22;20808;48.974;8.452;2022-10-23T04:48:03;11.80;99.90
34572;DHT22;20808;48.974;8.452;2022-10-23T04:50:30;11.90;99.90
34572;DHT22;20808;48.974;8.452;2022-10-23T04:52:57;11.90;99.90
34572;DHT22;20808;48.974;8.452;2022-10-23T04:55:24;11.90;99.90
34572;DHT22;20808;48.974;8.452;2022-10-23T04:57:51;11.90;99.90
34572;DHT22;20808;48.974;8.452;2022-10-23T05:00:18;11.80;99.90
34572;DHT22;20808;48.974;8.452;2022-10-23T05:02:46;11.70;99.90
34572;DHT22;20808;48.974;8.452;2022-10-23T05:05:13;11.60;99.90
34572;DHT22;20808;48.974;8.452;2022-10-23T05:07:40;11.50;99.90
34572;DHT22;20808;48.974;8.452;2022-10-23T05:10:07;11.30;99.90
34572;DHT22;20808;48.974;8.452;2022-10-23T05:12:34;11.10;99.90
34572;DHT22;20808;48.974;8.452;2022-10-23T05:15:01;11.00;99.90
34572;DHT22;20808;48.974;8.452;2022-10-23T05:17:31;10.90;99.90
34572;DHT22;20808;48.974;8.452;2022-10-23T05:20:03;11.10;99.90
34572;DHT22;20808;48.974;8.452;2022-10-23T05:22:34;11.50;99.90
34572;DHT22;20808;48.974;8.452;2022-10-23T05:25:03;11.60;99.90
34572;DHT22;20808;48.974;8.452;2022-10-23T05:27:30;11.60;99.90
34572;DHT22;20808;48.974;8.452;2022-10-23T05:29:57;11.60;99.90
34572;DHT22;20808;48.974;8.452;2022-10-23T05:32:24;11.50;99.90
34572;DHT22;20808;48.974;8.452;2022-10-23T05:34:53;11.50;99.90
34572;DHT22;20808;48.974;8.452;2022-10-23T05:37:22;11.40;99.90
34572;DHT22;20808;48.974;8.452;2022-10-23T05:39:49;11.50;99.90
34572;DHT22;20808;48.974;8.452;2022-10-23T05:42:15;11.50;99.90
34572;DHT22;20808;48.974;8.452;2022-10-23T05:44:42;11.50;99.90
34572;DHT22;20808;48.974;8.452;2022-10-23T05:47:09;11.50;99.90
34572;DHT22;20808;48.974;8.452;2022-10-23T05:49:36;11.40;99.90
34572;DHT22;20808;48.974;8.452;2022-10-23T05:52:03;11.30;99.90
34572;DHT22;20808;48.974;8.452;2022-10-23T05:54:31;11.10;99.90
34572;DHT22;20808;48.974;8.452;2022-10-23T05:56:58;10.90;99.90
34572;DHT22;20808;48.974;8.452;2022-10-23T05:59:24;10.80;99.90
34572;DHT22;20808;48.974;8.452;2022-10-23T06:01:51;10.70;99.90
34572;DHT22;20808;48.974;8.452;2022-10-23T06:04:18;10.60;99.90
34572;DHT22;20808;48.974;8.452;2022-10-23T06:06:45;10.70;99.90
34572;DHT22;20808;48.974;8.452;2022-10-23T06:09:13;10.80;99.90
34572;DHT22;20808;48.974;8.452;2022-10-23T06:11:41;10.80;99.90
34572;DHT22;20808;48.974;8.452;2022-10-23T06:14:08;10.90;99.90
34572;DHT22;20808;48.974;8.452;2022-10-23T06:16:35;10.80;99.90
34572;DHT22;20808;48.974;8.452;2022-10-23T06:19:02;10.80;99.90
34572;DHT22;20808;48.974;8.452;2022-10-23T06:21:28;10.80;99.90
34572;DHT22;20808;48.974;8.452;2022-10-23T06:23:55;10.70;99.90
34572;DHT22;20808;48.974;8.452;2022-10-23T06:26:22;10.70;99.90
34572;DHT22;20808;48.974;8.452;2022-10-23T06:28:50;11.00;99.90
34572;DHT22;20808;48.974;8.452;2022-10-23T06:31:17;11.00;99.90
34572;DHT22;20808;48.974;8.452;2022-10-23T06:33:44;11.00;99.90
34572;DHT22;20808;48.974;8.452;2022-10-23T06:36:11;11.10;99.90
34572;DHT22;20808;48.974;8.452;2022-10-23T06:38:38;11.20;99.90
34572;DHT22;20808;48.974;8.452;2022-10-23T06:41:06;11.20;99.90
34572;DHT22;20808;48.974;8.452;2022-10-23T06:43:36;11.40;99.90
34572;DHT22;20808;48.974;8.452;2022-10-23T06:46:05;11.60;99.90
34572;DHT22;20808;48.974;8.452;2022-10-23T06:48:32;11.70;99.90
34572;DHT22;20808;48.974;8.452;2022-10-23T06:51:04;11.70;99.90
34572;DHT22;20808;48.974;8.452;2022-10-23T06:53:31;11.80;99.90
34572;DHT22;20808;48.974;8.452;2022-10-23T06:55:58;11.80;99.90
34572;DHT22;20808;48.974;8.452;2022-10-23T06:58:26;11.90;99.90
34572;DHT22;20808;48.974;8.452;2022-10-23T07:00:53;12.00;99.90
34572;DHT22;20808;48.974;8.452;2022-10-23T07:03:21;11.90;99.90
34572;DHT22;20808;48.974;8.452;2022-10-23T07:05:48;11.90;99.90
34572;DHT22;20808;48.974;8.452;2022-10-23T07:08:15;11.80;99.90
34572;DHT22;20808;48.974;8.452;2022-10-23T07:10:44;11.90;99.90
34572;DHT22;20808;48.974;8.452;2022-10-23T07:13:12;11.90;99.90
34572;DHT22;20808;48.974;8.452;2022-10-23T07:15:39;11.90;99.90
34572;DHT22;20808;48.974;8.452;2022-10-23T07:18:06;11.90;99.90
34572;DHT22;20808;48.974;8.452;2022-10-23T07:20:40;12.00;99.90
34572;DHT22;20808;48.974;8.452;2022-10-23T07:23:08;12.00;99.90
34572;DHT22;20808;48.974;8.452;2022-10-23T07:25:36;12.20;99.90
34572;DHT22;20808;48.974;8.452;2022-10-23T07:28:04;12.20;99.90
34572;DHT22;20808;48.974;8.452;2022-10-23T07:30:31;12.30;99.90
34572;DHT22;20808;48.974;8.452;2022-10-23T07:32:57;12.40;99.90
34572;DHT22;20808;48.974;8.452;2022-10-23T07:35:24;12.50;99.90
34572;DHT22;20808;48.974;8.452;2022-10-23T07:37:52;12.60;99.90
34572;DHT22;20808;48.974;8.452;2022-10-23T07:40:19;12.70;99.90
34572;DHT22;20808;48.974;8.452;2022-10-23T07:42:46;12.80;99.90
34572;DHT22;20808;48.974;8.452;2022-10-23T07:45:13;13.00;99.90
34572;DHT22;20808;48.974;8.452;2022-10-23T07:47:39;13.00;99.90
34572;DHT22;20808;48.974;8.452;2022-10-23T07:50:07;13.20;99.90
34572;DHT22;20808;48.974;8.452;2022-10-23T07:52:34;13.40;99.90
34572;DHT22;20808;48.974;8.452;2022-10-23T07:55:03;13.70;99.90
34572;DHT22;20808;48.974;8.452;2022-10-23T07:57:30;14.00;99.90
34572;DHT22;20808;48.974;8.452;2022-10-23T07:59:57;14.30;1.00
34572;DHT22;20808;48.974;8.452;2022-10-23T08:02:23;14.50;1.00
34572;DHT22;20808;48.974;8.452;2022-10-23T08:04:50;14.70;1.00
34572;DHT22;20808;48.974;8.452;2022-10-23T08:07:17;14.80;1.00
34572;DHT22;20808;48.974;8.452;2022-10-23T08:09:44;15.10;99.90
34572;DHT22;20808;48.974;8.452;2022-10-23T08:12:12;15.40;99.90
34572;DHT22;20808;48.974;8.452;2022-10-23T08:14:39;15.60;1.00
34572;DHT22;20808;48.974;8.452;2022-10-23T08:17:05;15.90;54.90
34572;DHT22;20808;48.974;8.452;2022-10-23T08:19:34;16.10;99.90
34572;DHT22;20808;48.974;8.452;2022-10-23T08:22:01;16.40;1.00
34572;DHT22;20808;48.974;8.452;2022-10-23T08:24:28;16.70;99.90
34572;DHT22;20808;48.974;8.452;2022-10-23T08:26:55;16.80;1.00
34572;DHT22;20808;48.974;8.452;2022-10-23T08:29:24;17.00;1.00
34572;DHT22;20808;48.974;8.452;2022-10-23T08:31:52;17.10;1.00
34572;DHT22;20808;48.974;8.452;2022-10-23T08:34:20;17.20;99.90
34572;DHT22;20808;48.974;8.452;2022-10-23T08:36:47;17.30;99.90
34572;DHT22;20808;48.974;8.452;2022-10-23T08:39:14;17.60;1.00
34572;DHT22;20808;48.974;8.452;2022-10-23T08:41:45;17.80;1.00
34572;DHT22;20808;48.974;8.452;2022-10-23T08:44:19;17.70;1.00
34572;DHT22;20808;48.974;8.452;2022-10-23T08:46:52;17.60;1.60
34572;DHT22;20808;48.974;8.452;2022-10-23T08:49:32;17.80;1.00
34572;DHT22;20808;48.974;8.452;2022-10-23T08:52:06;18.20;1.00
34572;DHT22;20808;48.974;8.452;2022-10-23T08:54:45;18.60;1.00
34572;DHT22;20808;48.974;8.452;2022-10-23T08:57:16;18.70;1.00
34572;DHT22;20808;48.974;8.452;2022-10-23T08:59:46;18.70;1.00
34572;DHT22;20808;48.974;8.452;2022-10-23T09:02:20;18.90;1.00
34572;DHT22;20808;48.974;8.452;2022-10-23T09:04:48;19.20;1.00
34572;DHT22;20808;48.974;8.452;2022-10-23T09:07:26;19.60;99.90
34572;DHT22;20808;48.974;8.452;2022-10-23T09:10:15;20.00;99.90
34572;DHT22;20808;48.974;8.452;2022-10-23T09:12:47;20.50;99.90
34572;DHT22;20808;48.974;8.452;2022-10-23T09:15:23;20.90;99.90
34572;DHT22;20808;48.974;8.452;2022-10-23T09:17:57;21.30;99.90
34572;DHT22;20808;48.974;8.452;2022-10-23T09:20:26;20.80;99.90
34572;DHT22;20808;48.974;8.452;2022-10-23T09:22:57;21.30;99.90
34572;DHT22;20808;48.974;8.452;2022-10-23T09:25:26;21.30;99.90
34572;DHT22;20808;48.974;8.452;2022-10-23T09:27:55;20.70;99.90
34572;DHT22;20808;48.974;8.452;2022-10-23T09:30:27;20.60;99.90
34572;DHT22;20808;48.974;8.452;2022-10-23T09:32:57;20.70;99.90
34572;DHT22;20808;48.974;8.452;2022-10-23T09:35:26;21.00;99.90
34572;DHT22;20808;48.974;8.452;2022-10-23T09:37:53;21.50;99.90
34572;DHT22;20808;48.974;8.452;2022-10-23T09:40:24;21.40;99.90
34572;DHT22;20808;48.974;8.452;2022-10-23T09:42:57;21.70;99.90
34572;DHT22;20808;48.974;8.452;2022-10-23T09:45:27;21.80;99.90
34572;DHT22;20808;48.974;8.452;2022-10-23T09:48:13;21.70;99.90
34572;DHT22;20808;48.974;8.452;2022-10-23T09:50:48;21.90;99.90
34572;DHT22;20808;48.974;8.452;2022-10-23T09:53:17;22.10;99.90
34572;DHT22;20808;48.974;8.452;2022-10-23T09:55:51;22.30;99.90
34572;DHT22;20808;48.974;8.452;2022-10-23T09:58:20;22.40;99.90
34572;DHT22;20808;48.974;8.452;2022-10-23T10:00:50;22.80;99.90
34572;DHT22;20808;48.974;8.452;2022-10-23T10:03:20;22.80;99.90
34572;DHT22;20808;48.974;8.452;2022-10-23T10:05:54;22.80;99.90
34572;DHT22;20808;48.974;8.452;2022-10-23T10:08:27;23.50;99.90
34572;DHT22;20808;48.974;8.452;2022-10-23T10:10:59;23.30;98.00
34572;DHT22;20808;48.974;8.452;2022-10-23T10:13:38;23.20;95.70
34572;DHT22;20808;48.974;8.452;2022-10-23T10:16:14;23.00;91.10
34572;DHT22;20808;48.974;8.452;2022-10-23T10:18:52;22.70;88.70
34572;DHT22;20808;48.974;8.452;2022-10-23T10:21:25;22.90;86.60
34572;DHT22;20808;48.974;8.452;2022-10-23T10:23:57;23.10;77.00
34572;DHT22;20808;48.974;8.452;2022-10-23T10:26:33;23.10;69.30
34572;DHT22;20808;48.974;8.452;2022-10-23T10:29:09;23.20;69.10
34572;DHT22;20808;48.974;8.452;2022-10-23T10:31:47;23.70;84.80
34572;DHT22;20808;48.974;8.452;2022-10-23T10:34:24;24.10;58.90
34572;DHT22;20808;48.974;8.452;2022-10-23T10:36:55;24.60;45.40
34572;DHT22;20808;48.974;8.452;2022-10-23T10:39:36;24.70;33.60
34572;DHT22;20808;48.974;8.452;2022-10-23T10:42:21;24.40;26.20
34572;DHT22;20808;48.974;8.452;2022-10-23T10:45:00;23.40;25.50
34572;DHT22;20808;48.974;8.452;2022-10-23T10:47:34;22.90;24.40
34572;DHT22;20808;48.974;8.452;2022-10-23T10:50:16;23.10;25.90
34572;DHT22;20808;48.974;8.452;2022-10-23T10:52:50;23.30;24.30
34572;DHT22;20808;48.974;8.452;2022-10-23T10:55:22;23.30;22.30
34572;DHT22;20808;48.974;8.452;2022-10-23T10:57:55;23.50;20.90
34572;DHT22;20808;48.974;8.452;2022-10-23T11:00:23;23.90;21.50
34572;DHT22;20808;48.974;8.452;2022-10-23T11:02:56;24.40;21.20
34572;DHT22;20808;48.974;8.452;2022-10-23T11:05:29;24.50;16.50
34572;DHT22;20808;48.974;8.452;2022-10-23T11:08:00;24.30;10.30
34572;DHT22;20808;48.974;8.452;2022-10-23T11:10:30;23.60;5.60
34572;DHT22;20808;48.974;8.452;2022-10-23T11:12:58;23.00;11.30
34572;DHT22;20808;48.974;8.452;2022-10-23T11:15:27;23.10;10.80
34572;DHT22;20808;48.974;8.452;2022-10-23T11:18:00;23.20;26.10
34572;DHT22;20808;48.974;8.452;2022-10-23T11:20:53;23.20;13.70
34572;DHT22;20808;48.974;8.452;2022-10-23T11:26:38;23.10;14.80
34572;DHT22;20808;48.974;8.452;2022-10-23T11:29:38;23.00;16.20
34572;DHT22;20808;48.974;8.452;2022-10-23T11:32:24;23.00;16.70
34572;DHT22;20808;48.974;8.452;2022-10-23T11:35:13;23.50;16.00
34572;DHT22;20808;48.974;8.452;2022-10-23T11:37:44;24.10;12.00
34572;DHT22;20808;48.974;8.452;2022-10-23T11:40:23;24.70;4.60
34572;DHT22;20808;48.974;8.452;2022-10-23T11:42:51;25.60;1.00
34572;DHT22;20808;48.974;8.452;2022-10-23T11:45:35;25.90;1.00
34572;DHT22;20808;48.974;8.452;2022-10-23T11:48:03;26.30;1.00
34572;DHT22;20808;48.974;8.452;2022-10-23T11:50:33;26.10;1.00
34572;DHT22;20808;48.974;8.452;2022-10-23T11:53:25;25.80;1.00
34572;DHT22;20808;48.974;8.452;2022-10-23T11:55:57;25.60;1.00
34572;DHT22;20808;48.974;8.452;2022-10-23T11:58:26;25.60;1.00
34572;DHT22;20808;48.974;8.452;2022-10-23T12:01:02;25.60;1.00
34572;DHT22;20808;48.974;8.452;2022-10-23T12:03:41;25.50;1.00
34572;DHT22;20808;48.974;8.452;2022-10-23T12:06:20;25.50;1.00
34572;DHT22;20808;48.974;8.452;2022-10-23T12:08:53;25.40;1.00
34572;DHT22;20808;48.974;8.452;2022-10-23T12:11:38;25.40;1.00
34572;DHT22;20808;48.974;8.452;2022-10-23T12:14:28;25.50;1.00
34572;DHT22;20808;48.974;8.452;2022-10-23T12:16:55;25.90;1.00
34572;DHT22;20808;48.974;8.452;2022-10-23T12:19:24;26.50;1.00
34572;DHT22;20808;48.974;8.452;2022-10-23T12:21:52;27.00;1.00
34572;DHT22;20808;48.974;8.452;2022-10-23T12:24:32;26.90;1.00
34572;DHT22;20808;48.974;8.452;2022-10-23T12:27:11;26.60;1.00
34572;DHT22;20808;48.974;8.452;2022-10-23T12:29:53;26.10;1.00
34572;DHT22;20808;48.974;8.452;2022-10-23T12:32:36;25.70;1.00
34572;DHT22;20808;48.974;8.452;2022-10-23T12:35:21;25.60;1.00
34572;DHT22;20808;48.974;8.452;2022-10-23T12:38:03;25.90;1.00
34572;DHT22;20808;48.974;8.452;2022-10-23T12:40:34;26.20;1.00
34572;DHT22;20808;48.974;8.452;2022-10-23T12:43:01;25.90;1.00
34572;DHT22;20808;48.974;8.452;2022-10-23T12:45:29;25.70;1.00
34572;DHT22;20808;48.974;8.452;2022-10-23T12:47:57;25.50;1.00
34572;DHT22;20808;48.974;8.452;2022-10-23T12:50:25;25.80;1.00
34572;DHT22;20808;48.974;8.452;2022-10-23T12:52:54;26.30;1.00
34572;DHT22;20808;48.974;8.452;2022-10-23T12:55:23;26.30;1.00
34572;DHT22;20808;48.974;8.452;2022-10-23T12:57:52;25.90;1.00
34572;DHT22;20808;48.974;8.452;2022-10-23T13:00:21;25.90;1.00
34572;DHT22;20808;48.974;8.452;2022-10-23T13:02:57;25.80;1.00
34572;DHT22;20808;48.974;8.452;2022-10-23T13:05:24;26.20;1.00
34572;DHT22;20808;48.974;8.452;2022-10-23T13:07:52;27.40;1.00
34572;DHT22;20808;48.974;8.452;2022-10-23T13:10:21;28.70;1.00
34572;DHT22;20808;48.974;8.452;2022-10-23T13:12:53;29.20;1.00
34572;DHT22;20808;48.974;8.452;2022-10-23T13:15:21;29.40;1.00
34572;DHT22;20808;48.974;8.452;2022-10-23T13:18:00;29.80;1.00
34572;DHT22;20808;48.974;8.452;2022-10-23T13:20:29;29.90;1.00
34572;DHT22;20808;48.974;8.452;2022-10-23T13:22:59;29.70;1.00
34572;DHT22;20808;48.974;8.452;2022-10-23T13:25:28;29.10;1.00
34572;DHT22;20808;48.974;8.452;2022-10-23T13:28:20;28.30;1.00
34572;DHT22;20808;48.974;8.452;2022-10-23T13:31:20;27.50;1.00
34572;DHT22;20808;48.974;8.452;2022-10-23T13:33:49;26.30;1.00
34572;DHT22;20808;48.974;8.452;2022-10-23T13:36:22;25.70;1.00
34572;DHT22;20808;48.974;8.452;2022-10-23T13:39:00;25.10;1.00
34572;DHT22;20808;48.974;8.452;2022-10-23T13:41:28;24.70;1.00
34572;DHT22;20808;48.974;8.452;2022-10-23T13:43:57;24.40;1.00
34572;DHT22;20808;48.974;8.452;2022-10-23T13:46:24;24.40;1.00
34572;DHT22;20808;48.974;8.452;2022-10-23T13:48:51;24.30;1.00
34572;DHT22;20808;48.974;8.452;2022-10-23T13:51:20;24.30;1.00
34572;DHT22;20808;48.974;8.452;2022-10-23T13:53:48;24.40;1.50
34572;DHT22;20808;48.974;8.452;2022-10-23T13:56:17;24.40;4.80
34572;DHT22;20808;48.974;8.452;2022-10-23T13:58:45;23.90;4.50
34572;DHT22;20808;48.974;8.452;2022-10-23T14:01:19;23.80;4.50
34572;DHT22;20808;48.974;8.452;2022-10-23T14:03:47;23.70;8.70
34572;DHT22;20808;48.974;8.452;2022-10-23T14:06:14;23.40;2.00
34572;DHT22;20808;48.974;8.452;2022-10-23T14:08:41;23.30;22.70
34572;DHT22;20808;48.974;8.452;2022-10-23T14:11:09;23.10;29.40
34572;DHT22;20808;48.974;8.452;2022-10-23T14:13:36;22.80;43.50
34572;DHT22;20808;48.974;8.452;2022-10-23T14:16:02;22.40;99.60
34572;DHT22;20808;48.974;8.452;2022-10-23T14:18:31;22.30;99.90
34572;DHT22;20808;48.974;8.452;2022-10-23T14:20:58;22.30;99.90
34572;DHT22;20808;48.974;8.452;2022-10-23T14:23:25;22.20;99.90
34572;DHT22;20808;48.974;8.452;2022-10-23T14:25:52;22.00;1.00
34572;DHT22;20808;48.974;8.452;2022-10-23T14:28:19;21.90;1.00
34572;DHT22;20808;48.974;8.452;2022-10-23T14:30:46;21.90;1.00
34572;DHT22;20808;48.974;8.452;2022-10-23T14:33:12;21.80;1.00
34572;DHT22;20808;48.974;8.452;2022-10-23T14:35:42;21.70;1.00
34572;DHT22;20808;48.974;8.452;2022-10-23T14:38:09;21.70;1.00
34572;DHT22;20808;48.974;8.452;2022-10-23T14:40:36;21.60;1.00
34572;DHT22;20808;48.974;8.452;2022-10-23T14:43:03;21.50;99.90
34572;DHT22;20808;48.974;8.452;2022-10-23T14:45:30;21.50;99.90
34572;DHT22;20808;48.974;8.452;2022-10-23T14:47:57;21.40;99.90
34572;DHT22;20808;48.974;8.452;2022-10-23T14:50:25;21.50;99.90
34572;DHT22;20808;48.974;8.452;2022-10-23T14:52:53;21.50;99.90
34572;DHT22;20808;48.974;8.452;2022-10-23T14:55:20;21.30;1.00
34572;DHT22;20808;48.974;8.452;2022-10-23T14:57:47;21.10;20.00
34572;DHT22;20808;48.974;8.452;2022-10-23T15:00:14;20.90;1.00
34572;DHT22;20808;48.974;8.452;2022-10-23T15:02:41;20.80;1.00
34572;DHT22;20808;48.974;8.452;2022-10-23T15:05:08;20.80;1.00
34572;DHT22;20808;48.974;8.452;2022-10-23T15:07:35;20.70;1.00
34572;DHT22;20808;48.974;8.452;2022-10-23T15:10:03;20.70;1.00
34572;DHT22;20808;48.974;8.452;2022-10-23T15:12:30;20.60;99.90
34572;DHT22;20808;48.974;8.452;2022-10-23T15:14:58;20.50;39.40
34572;DHT22;20808;48.974;8.452;2022-10-23T15:17:25;20.50;99.90
34572;DHT22;20808;48.974;8.452;2022-10-23T15:19:52;20.40;99.90
34572;DHT22;20808;48.974;8.452;2022-10-23T15:22:19;20.50;99.90
34572;DHT22;20808;48.974;8.452;2022-10-23T15:24:47;20.60;99.90
34572;DHT22;20808;48.974;8.452;2022-10-23T15:27:15;20.60;1.00
34572;DHT22;20808;48.974;8.452;2022-10-23T15:29:42;20.60;64.20
34572;DHT22;20808;48.974;8.452;2022-10-23T15:32:10;20.70;1.00
34572;DHT22;20808;48.974;8.452;2022-10-23T15:34:37;20.80;1.00
34572;DHT22;20808;48.974;8.452;2022-10-23T15:37:07;20.70;1.00
34572;DHT22;20808;48.974;8.452;2022-10-23T15:39:34;20.40;1.00
34572;DHT22;20808;48.974;8.452;2022-10-23T15:42:02;20.30;1.00
34572;DHT22;20808;48.974;8.452;2022-10-23T15:44:32;20.20;20.60
34572;DHT22;20808;48.974;8.452;2022-10-23T15:46:59;20.00;1.00
34572;DHT22;20808;48.974;8.452;2022-10-23T15:49:27;19.80;99.90
34572;DHT22;20808;48.974;8.452;2022-10-23T15:51:54;19.70;1.00
34572;DHT22;20808;48.974;8.452;2022-10-23T15:54:22;19.60;1.00
34572;DHT22;20808;48.974;8.452;2022-10-23T15:56:50;19.40;1.00
34572;DHT22;20808;48.974;8.452;2022-10-23T15:59:19;19.20;1.00